createdAt,value
2018-02-23T00:01:06.327Z,82.90
2018-02-23T00:03:34.606Z,83.00
2018-02-23T00:06:02.893Z,83.30
2018-02-23T00:08:30.391Z,83.20
2018-02-23T00:10:57.906Z,83.20
2018-02-23T00:13:26.167Z,83.40
2018-02-23T00:15:54.441Z,83.60
2018-02-23T00:18:22.698Z,83.80
2018-02-23T00:20:50.215Z,83.30
2018-02-23T00:23:17.710Z,83.50
2018-02-23T00:25:45.238Z,83.80
2018-02-23T00:28:12.730Z,84.20
2018-02-23T00:30:40.243Z,84.40
2018-02-23T00:33:07.794Z,84.40
2018-02-23T00:35:35.308Z,84.50
2018-02-23T00:38:02.798Z,84.90
2018-02-23T00:40:31.062Z,85.30
2018-02-23T00:42:58.569Z,85.30
2018-02-23T00:45:26.066Z,85.40
2018-02-23T00:47:53.566Z,85.60
2018-02-23T00:50:21.131Z,85.50
2018-02-23T00:52:48.642Z,85.50
2018-02-23T00:55:16.142Z,85.10
2018-02-23T00:57:43.706Z,85.10
2018-02-23T01:00:11.238Z,84.90
2018-02-23T01:02:38.739Z,85.00
2018-02-23T01:05:06.234Z,85.20
2018-02-23T01:07:33.739Z,84.90
2018-02-23T01:10:01.240Z,85.00
2018-02-23T01:12:28.746Z,85.30
2018-02-23T01:14:57.014Z,85.40
2018-02-23T01:17:25.296Z,85.40
2018-02-23T01:19:53.566Z,85.40
2018-02-23T01:22:21.845Z,85.30
2018-02-23T01:24:50.107Z,85.50
2018-02-23T01:27:17.618Z,85.50
2018-02-23T01:29:45.146Z,85.60
2018-02-23T01:32:13.422Z,85.80
2018-02-23T01:34:40.968Z,85.70
2018-02-23T01:37:09.230Z,85.50
2018-02-23T01:39:36.745Z,85.90
2018-02-23T01:42:04.269Z,85.80
2018-02-23T01:44:32.559Z,86.10
2018-02-23T01:47:00.058Z,86.10
2018-02-23T01:49:27.566Z,86.10
2018-02-23T01:51:55.826Z,86.00
2018-02-23T01:54:23.334Z,86.00
2018-02-23T01:56:50.829Z,86.20
2018-02-23T01:59:18.334Z,85.90
2018-02-23T02:01:45.852Z,85.90
2018-02-23T02:04:13.374Z,85.80
2018-02-23T02:06:40.874Z,85.80
2018-02-23T02:09:08.393Z,85.50
2018-02-23T02:11:35.887Z,85.40
2018-02-23T02:14:03.410Z,85.30
2018-02-23T02:16:30.910Z,85.50
2018-02-23T02:18:58.439Z,85.60
2018-02-23T02:21:25.926Z,85.60
2018-02-23T02:23:54.195Z,85.90
2018-02-23T02:26:21.721Z,85.80
2018-02-23T02:28:49.227Z,85.90
2018-02-23T02:31:17.520Z,86.30
2018-02-23T02:33:45.796Z,86.50
2018-02-23T02:36:14.074Z,86.70
2018-02-23T02:38:42.357Z,87.20
2018-02-23T02:41:09.895Z,87.20
2018-02-23T02:43:37.395Z,87.50
2018-02-23T02:46:04.911Z,88.00
2018-02-23T02:48:32.410Z,88.20
2018-02-23T02:50:59.927Z,88.60
2018-02-23T02:53:28.213Z,88.90
2018-02-23T02:55:56.514Z,89.40
2018-02-23T02:58:24.027Z,89.40
2018-02-23T03:00:52.333Z,90.00
2018-02-23T03:03:20.594Z,90.00
2018-02-23T03:05:48.190Z,90.00
2018-02-23T03:08:15.708Z,90.00
2018-02-23T03:10:43.238Z,90.00
2018-02-23T03:13:10.781Z,90.10
2018-02-23T03:15:38.302Z,90.20
2018-02-23T03:18:06.582Z,90.60
2018-02-23T03:20:34.862Z,90.60
2018-02-23T03:23:03.152Z,90.60
2018-02-23T03:25:30.659Z,90.60
2018-02-23T03:27:58.179Z,90.70
2018-02-23T03:30:25.684Z,90.80
2018-02-23T03:32:53.208Z,90.90
2018-02-23T03:35:20.710Z,91.00
2018-02-23T03:37:48.229Z,91.00
2018-02-23T03:40:15.773Z,91.20
2018-02-23T03:42:43.320Z,91.30
2018-02-23T03:45:10.895Z,91.30
2018-02-23T03:47:38.415Z,91.30
2018-02-23T03:50:05.925Z,91.50
2018-02-23T03:52:33.453Z,91.50
2018-02-23T03:55:01.722Z,91.70
2018-02-23T03:57:30.006Z,91.70
2018-02-23T03:59:58.278Z,91.70
2018-02-23T04:02:26.546Z,91.90
2018-02-23T04:04:54.069Z,91.80
2018-02-23T04:07:21.574Z,91.90
2018-02-23T04:09:49.857Z,91.90
2018-02-23T04:12:18.122Z,92.10
2018-02-23T04:14:46.409Z,92.00
2018-02-23T04:17:14.680Z,92.20
2018-02-23T04:19:42.975Z,92.40
2018-02-23T04:22:10.482Z,92.10
2018-02-23T04:24:38.013Z,92.10
2018-02-23T04:27:05.524Z,92.20
2018-02-23T04:29:33.049Z,92.20
2018-02-23T04:32:00.561Z,92.60
2018-02-23T04:34:28.846Z,92.20
2018-02-23T04:36:56.342Z,92.20
2018-02-23T04:39:23.859Z,92.00
2018-02-23T04:41:52.126Z,91.90
2018-02-23T04:44:20.420Z,91.90
2018-02-23T04:46:47.922Z,91.80
2018-02-23T04:49:15.459Z,91.90
2018-02-23T04:51:43.005Z,91.70
2018-02-23T04:54:10.583Z,91.70
2018-02-23T04:56:38.098Z,91.70
2018-02-23T04:59:06.363Z,91.80
2018-02-23T05:01:33.875Z,91.70
2018-02-23T05:04:01.383Z,91.70
2018-02-23T05:06:29.674Z,91.80
2018-02-23T05:08:57.950Z,91.70
2018-02-23T05:11:26.232Z,91.70
2018-02-23T05:13:54.502Z,91.80
2018-02-23T05:16:22.785Z,92.00
2018-02-23T05:18:51.063Z,92.00
2018-02-23T05:21:19.344Z,91.90
2018-02-23T05:23:47.611Z,92.10
2018-02-23T05:26:15.899Z,92.10
2018-02-23T05:28:43.470Z,92.00
2018-02-23T05:31:11.018Z,92.00
2018-02-23T05:33:38.538Z,92.00
2018-02-23T05:36:06.146Z,91.90
2018-02-23T05:38:33.706Z,91.80
2018-02-23T05:41:01.219Z,91.80
2018-02-23T05:43:28.813Z,91.50
2018-02-23T05:45:56.335Z,91.40
2018-02-23T05:48:23.851Z,91.30
2018-02-23T05:50:51.380Z,91.30
2018-02-23T05:53:19.663Z,91.30
2018-02-23T05:55:47.929Z,91.30
2018-02-23T05:58:16.219Z,91.30
2018-02-23T06:00:44.493Z,91.20
2018-02-23T06:03:12.855Z,91.30
2018-02-23T06:05:40.349Z,91.30
2018-02-23T06:08:07.883Z,91.20
2018-02-23T06:10:36.161Z,90.70
2018-02-23T06:13:04.562Z,90.60
2018-02-23T06:15:37.770Z,90.60
2018-02-23T06:18:08.198Z,90.50
2018-02-23T06:20:35.699Z,90.30
2018-02-23T06:23:03.224Z,90.30
2018-02-23T06:25:30.718Z,90.30
2018-02-23T06:27:58.229Z,90.50
2018-02-23T06:30:25.738Z,90.70
2018-02-23T06:32:53.245Z,90.90
2018-02-23T06:35:20.794Z,91.00
2018-02-23T06:37:48.298Z,91.20
2018-02-23T06:40:15.828Z,91.30
2018-02-23T06:42:43.325Z,91.40
2018-02-23T06:45:10.844Z,91.50
2018-02-23T06:47:38.345Z,91.50
2018-02-23T06:50:05.860Z,91.70
2018-02-23T06:52:33.365Z,91.70
2018-02-23T06:55:00.983Z,91.80
2018-02-23T06:57:28.484Z,91.90
2018-02-23T06:59:56.766Z,92.40
2018-02-23T07:02:24.275Z,92.40
2018-02-23T07:04:51.806Z,92.20
2018-02-23T07:07:20.078Z,91.60
2018-02-23T07:09:48.396Z,91.50
2018-02-23T07:12:15.898Z,91.50
2018-02-23T07:14:43.423Z,91.30
2018-02-23T07:17:10.937Z,91.40
2018-02-23T07:19:39.217Z,90.40
2018-02-23T07:22:07.504Z,90.50
2018-02-23T07:24:35.007Z,90.50
2018-02-23T07:27:02.535Z,90.00
2018-02-23T07:29:30.086Z,88.10
2018-02-23T07:31:57.603Z,88.70
2018-02-23T07:34:25.112Z,87.80
2018-02-23T07:36:52.623Z,87.70
2018-02-23T07:39:20.126Z,87.00
2018-02-23T07:41:47.642Z,85.90
2018-02-23T07:44:15.147Z,85.60
2018-02-23T07:46:42.674Z,85.20
2018-02-23T07:49:10.934Z,83.10
2018-02-23T07:51:38.438Z,83.00
2018-02-23T07:54:05.950Z,83.60
2018-02-23T07:56:33.450Z,84.10
2018-02-23T07:59:00.966Z,81.60
2018-02-23T08:01:29.286Z,81.50
2018-02-23T08:03:56.808Z,81.80
2018-02-23T08:06:24.382Z,82.20
2018-02-23T08:08:52.674Z,81.70
2018-02-23T08:11:20.170Z,81.60
2018-02-23T08:13:47.666Z,79.20
2018-02-23T08:16:15.174Z,80.60
2018-02-23T08:18:42.724Z,81.60
2018-02-23T08:21:10.238Z,79.30
2018-02-23T11:45:41.932Z,51.10
2018-02-23T11:48:09.438Z,51.80
2018-02-23T11:50:36.926Z,53.00
2018-02-23T11:53:05.218Z,51.00
2018-02-23T11:55:32.738Z,50.90
2018-02-23T11:58:05.957Z,49.00
2018-02-23T12:00:34.230Z,50.50
2018-02-23T12:03:02.507Z,50.60
2018-02-23T12:05:30.806Z,49.60
2018-02-23T12:07:58.308Z,49.60
2018-02-23T12:10:25.819Z,48.40
2018-02-23T12:12:53.350Z,47.90
2018-02-23T12:15:21.622Z,49.60
2018-02-23T12:17:49.113Z,49.40
2018-02-23T12:20:16.621Z,48.90
2018-02-23T12:22:44.106Z,49.70
2018-02-23T12:25:12.406Z,48.70
2018-02-23T12:27:39.902Z,48.70
2018-02-23T12:30:07.403Z,49.80
2018-02-23T12:32:35.697Z,48.00
2018-02-23T12:35:03.187Z,47.90
2018-02-23T12:37:30.705Z,46.40
2018-02-23T12:39:58.190Z,45.10
2018-02-23T12:42:25.695Z,46.80
2018-02-23T12:44:53.183Z,48.00
2018-02-23T12:47:21.451Z,46.30
2018-02-23T12:49:49.711Z,43.30
2018-02-23T12:52:17.300Z,43.30
2018-02-23T12:54:45.549Z,43.50
2018-02-23T12:57:13.057Z,43.60
2018-02-23T12:59:40.551Z,45.60
2018-02-23T13:02:08.166Z,44.50
2018-02-23T13:04:35.658Z,45.40
2018-02-23T13:07:03.163Z,44.10
2018-02-23T13:09:31.426Z,41.70
2018-02-23T13:11:59.709Z,41.30
2018-02-23T13:14:33.724Z,40.20
2018-02-23T13:17:01.999Z,39.60
2018-02-23T13:19:30.256Z,38.00
2018-02-23T13:21:57.769Z,38.00
2018-02-23T13:24:25.261Z,37.40
2018-02-23T13:26:52.775Z,37.80
2018-02-23T13:29:20.286Z,36.50
2018-02-23T13:31:47.770Z,37.50
2018-02-23T13:34:16.040Z,37.90
2018-02-23T13:36:44.298Z,37.50
2018-02-23T13:39:11.802Z,37.40
2018-02-23T13:41:41.217Z,36.50
2018-02-23T13:44:08.726Z,34.70
2018-02-23T13:46:36.226Z,35.40
2018-02-23T13:49:03.731Z,34.90
2018-02-23T13:51:31.222Z,35.60
2018-02-23T13:54:05.126Z,32.80
2018-02-23T13:56:33.375Z,30.00
2018-02-23T13:59:00.896Z,30.00
2018-02-23T14:01:28.395Z,29.80
2018-02-23T14:03:55.883Z,29.20
2018-02-23T14:06:30.141Z,28.50
2018-02-23T14:08:57.639Z,28.50
2018-02-23T14:11:25.144Z,27.70
2018-02-23T14:13:52.643Z,27.20
2018-02-23T14:16:20.154Z,27.10
2018-02-23T14:18:47.645Z,27.50
2018-02-23T14:21:15.183Z,27.30
2018-02-23T14:23:42.674Z,25.90
2018-02-23T14:26:10.291Z,26.00
2018-02-23T14:28:37.788Z,26.50
2018-02-23T14:31:05.297Z,26.00
2018-02-23T14:33:33.560Z,25.60
2018-02-23T14:36:01.835Z,25.60
2018-02-23T14:38:30.094Z,25.10
2018-02-23T14:40:58.395Z,25.80
2018-02-23T14:43:26.687Z,25.20
2018-02-23T14:45:54.960Z,25.60
2018-02-23T14:48:34.267Z,25.50
2018-02-23T14:51:10.865Z,26.10
2018-02-23T14:53:38.409Z,27.90
2018-02-23T14:56:06.675Z,30.90
2018-02-23T14:58:34.180Z,30.90
2018-02-23T15:01:01.678Z,32.50
2018-02-23T15:03:29.183Z,33.60
2018-02-23T15:05:56.741Z,34.20
2018-02-23T15:08:25.010Z,37.20
2018-02-23T15:10:53.270Z,36.20
2018-02-23T15:13:20.772Z,36.10
2018-02-23T15:15:48.266Z,35.90
2018-02-23T15:18:15.774Z,35.70
2018-02-23T15:20:43.304Z,38.70
2018-02-23T15:23:10.827Z,37.80
2018-02-23T15:25:38.373Z,37.60
2018-02-23T15:28:05.889Z,38.00
2018-02-23T15:30:46.079Z,38.60
2018-02-23T15:33:13.593Z,38.50
2018-02-23T15:35:41.850Z,38.70
2018-02-23T15:38:09.367Z,38.80
2018-02-23T15:40:36.872Z,38.20
2018-02-23T15:43:04.391Z,37.70
2018-02-23T15:45:31.899Z,36.40
2018-02-23T15:48:05.117Z,37.60
2018-02-23T15:53:41.232Z,38.90
2018-02-23T15:56:08.727Z,40.90
2018-02-23T15:58:45.155Z,41.90
2018-02-23T16:01:12.659Z,43.40
2018-02-23T16:03:40.178Z,43.10
2018-02-23T16:06:07.686Z,41.60
2018-02-23T16:08:35.178Z,42.90
2018-02-23T16:11:02.718Z,42.30
2018-02-23T16:13:30.972Z,43.30
2018-02-23T16:15:58.492Z,43.30
2018-02-23T16:18:26.768Z,45.10
2018-02-23T16:20:54.305Z,45.10
2018-02-23T16:23:21.811Z,46.60
2018-02-23T16:25:49.341Z,47.70
2018-02-23T16:28:16.837Z,48.60
2018-02-23T16:30:44.351Z,46.40
2018-02-23T16:33:11.861Z,47.30
2018-02-23T16:35:39.393Z,47.80
2018-02-23T16:38:06.875Z,48.90
2018-02-23T16:40:34.551Z,47.90
2018-02-23T16:43:02.945Z,48.90
2018-02-23T16:45:31.238Z,49.50
2018-02-23T16:47:58.751Z,49.50
2018-02-23T16:50:26.258Z,50.70
2018-02-23T16:52:53.841Z,49.00
2018-02-23T16:55:21.352Z,50.20
2018-02-23T16:57:49.635Z,51.30
2018-02-23T17:00:17.896Z,52.30
2018-02-23T17:02:47.113Z,52.00
2018-02-23T17:05:15.387Z,52.10
2018-02-23T17:07:43.667Z,52.60
2018-02-23T17:10:11.935Z,52.50
2018-02-23T17:12:39.453Z,52.50
2018-02-23T17:15:06.980Z,52.10
2018-02-23T17:17:34.760Z,52.30
2018-02-23T17:20:02.258Z,52.80
2018-02-23T17:22:29.762Z,52.80
2018-02-23T17:24:58.187Z,53.70
2018-02-23T17:27:25.750Z,54.20
2018-02-23T17:29:53.275Z,54.20
2018-02-23T17:32:20.803Z,54.60
2018-02-23T17:34:49.107Z,56.00
2018-02-23T17:37:17.363Z,56.10
2018-02-23T17:39:44.880Z,56.00
2018-02-23T17:42:12.370Z,56.30
2018-02-23T17:44:40.738Z,53.80
2018-02-23T17:47:09.019Z,53.00
2018-02-23T17:49:37.310Z,54.70
2018-02-23T17:52:04.821Z,54.50
2018-02-23T17:54:32.325Z,53.20
2018-02-23T17:57:00.579Z,53.00
2018-02-23T17:59:29.590Z,53.70
2018-02-23T18:01:57.846Z,54.30
2018-02-23T18:04:26.863Z,55.10
2018-02-23T18:06:55.124Z,55.40
2018-02-23T18:09:22.626Z,55.30
2018-02-23T18:11:50.146Z,55.80
2018-02-23T18:14:18.441Z,56.20
2018-02-23T18:16:46.699Z,55.60
2018-02-23T18:19:15.987Z,54.80
2018-02-23T18:21:44.986Z,55.30
2018-02-23T18:24:12.483Z,55.30
2018-02-23T18:26:39.998Z,56.20
2018-02-23T18:29:07.496Z,55.90
2018-02-23T18:31:35.036Z,56.80
2018-02-23T18:34:03.297Z,55.30
2018-02-23T18:36:31.572Z,55.30
2018-02-23T18:38:59.101Z,55.30
2018-02-23T18:41:26.609Z,55.50
2018-02-23T18:43:54.921Z,56.80
2018-02-23T18:46:22.426Z,56.80
2018-02-23T18:48:49.922Z,56.90
2018-02-23T18:51:17.446Z,56.40
2018-02-23T18:53:45.706Z,54.70
2018-02-23T18:56:13.227Z,54.70
2018-02-23T18:58:40.723Z,54.30
2018-02-23T19:01:08.282Z,55.10
2018-02-23T19:03:35.800Z,54.60
2018-02-23T19:06:03.284Z,55.20
2018-02-23T19:08:30.885Z,55.20
2018-02-23T19:10:59.165Z,56.50
2018-02-23T19:13:27.435Z,56.50
2018-02-23T19:15:55.713Z,56.10
2018-02-23T19:18:23.986Z,56.10
2018-02-23T19:20:52.989Z,56.20
2018-02-23T19:23:51.206Z,55.80
2018-02-23T19:26:18.693Z,56.10
2018-02-23T19:28:46.190Z,57.30
2018-02-23T19:31:14.461Z,57.70
2018-02-23T19:33:42.714Z,57.50
2018-02-23T19:36:10.237Z,57.50
2018-02-23T19:38:37.723Z,57.40
2018-02-23T19:42:59.191Z,57.70
2018-02-23T19:45:27.475Z,57.80
2018-02-23T19:47:55.733Z,56.90
2018-02-23T19:50:23.264Z,56.90
2018-02-23T19:52:50.758Z,58.00
2018-02-23T19:55:20.034Z,57.00
2018-02-23T19:57:47.571Z,56.90
2018-02-23T20:00:15.058Z,56.80
2018-02-23T20:02:42.573Z,57.60
2018-02-23T20:05:10.070Z,57.10
2018-02-23T20:07:37.594Z,57.60
2018-02-23T20:10:05.094Z,57.90
2018-02-23T20:12:32.709Z,58.10
2018-02-23T20:15:00.270Z,58.10
2018-02-23T20:17:27.790Z,58.80
2018-02-23T20:19:56.059Z,57.00
2018-02-23T20:22:25.085Z,56.80
2018-02-23T20:24:53.342Z,56.60
2018-02-23T20:27:21.655Z,57.60
2018-02-23T20:29:49.167Z,57.60
2018-02-23T20:32:16.654Z,57.20
2018-02-23T20:34:44.190Z,57.70
2018-02-23T20:37:12.487Z,56.80
2018-02-23T20:39:40.009Z,56.70
2018-02-23T20:42:07.506Z,53.80
2018-02-23T20:44:35.049Z,51.50
2018-02-23T20:47:03.313Z,50.40
2018-02-23T20:49:30.814Z,50.40
2018-02-23T20:51:58.318Z,49.30
2018-02-23T20:54:25.817Z,47.50
2018-02-23T20:56:53.341Z,47.60
2018-02-23T20:59:20.857Z,49.40
2018-02-23T21:01:48.353Z,50.90
2018-02-23T21:04:15.874Z,53.30
2018-02-23T21:06:43.394Z,46.50
2018-02-23T21:09:10.934Z,43.30
2018-02-23T21:11:38.438Z,43.10
2018-02-23T21:14:05.941Z,46.40
2018-02-23T21:16:33.514Z,44.10
2018-02-23T21:19:01.018Z,43.40
2018-02-23T21:21:28.552Z,43.80
2018-02-23T21:23:56.813Z,45.30
2018-02-23T21:26:25.091Z,46.30
2018-02-23T21:28:52.586Z,46.80
2018-02-23T21:31:20.121Z,43.00
2018-02-23T21:33:48.378Z,43.80
2018-02-23T21:36:15.894Z,43.70
2018-02-23T21:38:43.389Z,44.10
2018-02-23T21:41:10.992Z,43.90
2018-02-23T21:43:38.498Z,44.50
2018-02-23T21:46:05.998Z,44.80
2018-02-23T21:48:34.278Z,44.10
2018-02-23T21:51:02.593Z,43.90
2018-02-23T21:53:30.117Z,43.90
2018-02-23T21:55:58.421Z,42.80
2018-02-23T21:58:27.024Z,42.70
2018-02-23T22:00:54.531Z,42.40
2018-02-23T22:03:22.805Z,42.90
2018-02-23T22:05:51.062Z,42.90
2018-02-23T22:08:18.576Z,42.80
2018-02-23T22:10:46.078Z,53.20
2018-02-23T22:13:13.602Z,41.60
2018-02-23T22:15:41.094Z,42.10
2018-02-23T22:18:09.398Z,44.50
2018-02-23T22:20:37.654Z,44.40
2018-02-23T22:23:05.167Z,44.40
2018-02-23T22:25:32.665Z,45.30
2018-02-23T22:28:00.938Z,47.70
2018-02-23T22:30:28.475Z,47.90
2018-02-23T22:32:55.982Z,47.30
2018-02-23T22:35:24.271Z,48.40
2018-02-23T22:37:51.795Z,48.50
2018-02-23T22:40:19.316Z,46.70
2018-02-23T22:42:46.821Z,46.90
2018-02-23T22:45:14.334Z,45.90
2018-02-23T22:47:41.854Z,45.30
2018-02-23T22:50:10.137Z,46.40
2018-02-23T22:52:37.637Z,46.40
2018-02-23T22:55:05.150Z,46.40
2018-02-23T22:57:33.419Z,46.90
2018-02-23T23:00:01.708Z,47.90
2018-02-23T23:02:29.994Z,48.90
2018-02-23T23:04:57.535Z,48.90
2018-02-23T23:07:25.802Z,50.30
2018-02-23T23:09:53.309Z,50.40
2018-02-23T23:12:20.832Z,50.70
2018-02-23T23:14:49.098Z,50.10
2018-02-23T23:17:16.670Z,50.00
2018-02-23T23:19:44.950Z,50.10
2018-02-23T23:22:13.252Z,51.80
2018-02-23T23:24:40.751Z,51.70
2018-02-23T23:27:08.266Z,51.90
2018-02-23T23:29:35.770Z,52.20
2018-02-23T23:32:03.286Z,52.70
2018-02-23T23:34:30.795Z,53.10
2018-02-23T23:36:58.315Z,54.10
2018-02-23T23:39:31.806Z,53.80
2018-02-23T23:41:59.381Z,55.00
2018-02-23T23:44:26.877Z,55.80
2018-02-23T23:46:54.383Z,55.80
2018-02-23T23:49:21.917Z,55.90
2018-02-23T23:51:50.198Z,56.10
2018-02-23T23:54:18.478Z,57.00
2018-02-23T23:56:46.747Z,56.70
2018-02-23T23:59:15.045Z,56.50
